Aeroporto :
LOGIN :

Iscrizione | Disclaimer

   EN    FR    IT 

 










Sommario :    VFR   VFR Marginale   IFR   IFR Intensivo   IFR Molto Intensivo
Visibilità : 
Base nubi : 
>= 8 km
>= 3000ft
5 / 8 km
1000 / 3000 ft
1500m / 5 km
500 / 1000 ft
800 / 1500m
200 / 500 ft
< 800m
< 200 ft
Simboli :   Temporali  Nebbia  Neve Forte  Precipitazioni Forti  Vento > 20 kt
SIGMETs :   Varie  Temporali  Ghiacco  Turbolenza  Onda orograficha  Ceneri Vulcaniche







- Altitudine del aeroporto : 202 ft
- Codice IATA : LGW
- Carte del aeroporto


EGKK - London Gatwick

ULTIMO METAR :
  • 172150Z 19005KT 7000 -RA FEW010 BKN014 10/10 Q1016

METARs OBSOLETI :
  • 172120Z 18005KT 6000 -RA FEW009 BKN014 10/09 Q1016
  • 172050Z 20006KT 7000 -RA SCT017 11/09 Q1016
  • 172020Z 19006KT 9999 FEW016 SCT025 11/09 Q1016
  • 171950Z 19006KT 9000 FEW017 SCT032 11/09 Q1016
  • 171920Z 20006KT 160V230 9999 SCT016 11/09 Q1016

TAF TAF EGKK
Valido dal 17 a 18 ore il 19 a 00 ore UTC


171658Z 1718/1824 20008KT 9999 SCT018
TEMPO 1718/1824 BKN012
PROB30
TEMPO 1718/1803 7000 BKN008
PROB30
TEMPO 1803/1810 3000 BR BKN004
PROB40
TEMPO 1810/1823 7000 SHRA RA BKN008
BECMG 1821/1824 26010KT
Nessun NOTAM noto per questo aeroporto.



MetMap, La meteo Aeronautica in un colpo d'occhio ! - Copyright ORBIFLY Dicembre 2007 - Disclaimer

ORBIFLY MET'MAP TEAM :

Programmazione e sviluppo : Alexandra Zaïnal
Concezione e sviluppo : Baudouin d'Aumeries
Co-Programmazione e sviluppo : Marc-Olivier Méhu
Supporto tecnico e logistico : Manuel Goepfert
Aiuto per la traduzione : Arnaldo La Scala

Contatto : metmap@orbifly.com




FONTI E CREDITI :

   NOAA